WXM80 ListenWXM80 Stop

You find our weather info also at:

UK Metoffice

WeatherCloud

Weather Underground

Northeastern Weather Network

AWEKAS

Citizen Weather Observer Program (CWOP)

HAMweather, WeatherForYou, PWS Weather


Weather Underground History page Text

Daily Summary for February 17, 2018 Units:  English    Metric   Both
« Previous Day
Next Day »
Daily Weekly Monthly Yearly Custom
  High: Low: Average:
Temperature: 38.2 °F 30.5 °F 34.3 °F
Dew Point: 32.2 °F 21.2 °F 26.5 °F
Humidity: 97 % 57 % 74 %
Wind Speed: 9.1 mph 0.0 mph 3.3 mph
Wind Gust: 14.0 mph - -
Wind:- - SE
Pressure: 30.18 in 29.76 in -
Precipitation: 0.37 in    
Historical Graphs
 
 
Tabular Data for February 17, 2018
Time Temperature Dew Point Pressure Wind Wind Speed Wind Gust Humidity Rainfall Rate (Hourly)
00:01 36.4 °F 28.9 °F 29.91 in NNW 1.2 mph 3.5 mph 74 % 0.00 in
00:02 36.4 °F 28.9 °F 29.91 in NNW 0.1 mph 3.5 mph 74 % 0.00 in
00:07 36.3 °F 29.1 °F 29.92 in NW 0.3 mph 1.2 mph 75 % 0.00 in
00:12 36.2 °F 29.0 °F 29.92 in NNW 0.4 mph 3.0 mph 75 % 0.00 in
00:17 36.0 °F 28.8 °F 29.92 in NNW 3.1 mph 4.6 mph 75 % 0.00 in
00:23 35.9 °F 28.4 °F 29.92 in NNW 1.2 mph 3.5 mph 74 % 0.00 in
00:28 35.8 °F 28.3 °F 29.92 in NNW 2.6 mph 5.8 mph 74 % 0.00 in
00:33 35.7 °F 27.9 °F 29.92 in NW 2.0 mph 5.8 mph 73 % 0.00 in
00:38 35.6 °F 28.1 °F 29.93 in North 3.0 mph 4.6 mph 74 % 0.00 in
00:43 35.5 °F 28.7 °F 29.93 in NW 3.0 mph 5.8 mph 76 % 0.00 in
00:48 35.5 °F 28.4 °F 29.93 in North 4.1 mph 11.5 mph 75 % 0.00 in
00:53 35.4 °F 27.9 °F 29.94 in North 4.1 mph 8.1 mph 74 % 0.00 in
00:58 35.3 °F 27.2 °F 29.94 in North 6.6 mph 12.7 mph 72 % 0.00 in
01:03 35.4 °F 27.3 °F 29.94 in North 5.1 mph 8.1 mph 72 % 0.00 in
01:08 35.4 °F 27.3 °F 29.95 in NNE 5.9 mph 9.2 mph 72 % 0.00 in
01:13 35.4 °F 27.6 °F 29.95 in North 4.7 mph 6.9 mph 73 % 0.00 in
01:18 35.3 °F 27.5 °F 29.95 in North 7.3 mph 13.8 mph 73 % 0.00 in
01:23 35.3 °F 26.1 °F 29.95 in NNW 7.6 mph 11.5 mph 69 % 0.00 in
01:28 35.3 °F 26.1 °F 29.96 in North 5.5 mph 10.4 mph 69 % 0.00 in
01:33 35.2 °F 26.0 °F 29.97 in NNE 5.1 mph 9.2 mph 69 % 0.00 in
01:38 35.2 °F 26.4 °F 29.98 in NNW 5.0 mph 6.0 mph 70 % 0.00 in
01:44 35.2 °F 27.1 °F 29.98 in NNW 1.9 mph 5.8 mph 72 % 0.00 in
01:49 35.1 °F 27.0 °F 29.99 in NNW 0.9 mph 2.0 mph 72 % 0.00 in
01:54 35.0 °F 27.2 °F 29.98 in NNE 4.4 mph 7.0 mph 73 % 0.00 in
01:59 34.8 °F 25.3 °F 29.99 in NNW 9.1 mph 14.0 mph 68 % 0.00 in
02:04 34.7 °F 24.9 °F 29.99 in North 4.5 mph 10.4 mph 67 % 0.00 in
02:09 34.6 °F 25.1 °F 29.99 in NNW 5.8 mph 11.5 mph 68 % 0.00 in
02:14 34.5 °F 25.0 °F 29.99 in North 4.8 mph 8.1 mph 68 % 0.00 in
02:19 34.4 °F 24.9 °F 29.99 in NW 3.9 mph 5.8 mph 68 % 0.00 in
02:24 34.4 °F 24.9 °F 29.99 in North 3.2 mph 7.0 mph 68 % 0.00 in
02:29 34.3 °F 24.8 °F 29.99 in North 2.9 mph 4.6 mph 68 % 0.00 in
02:34 34.2 °F 25.1 °F 30.00 in North 4.1 mph 5.8 mph 69 % 0.00 in
02:39 34.2 °F 25.1 °F 29.99 in NNE 5.1 mph 11.5 mph 69 % 0.00 in
02:44 34.1 °F 25.7 °F 30.00 in North 5.9 mph 8.1 mph 71 % 0.00 in
02:49 34.0 °F 25.6 °F 30.00 in North 6.3 mph 8.1 mph 71 % 0.00 in
02:54 33.9 °F 24.8 °F 30.01 in North 7.5 mph 11.0 mph 69 % 0.00 in
02:59 33.8 °F 23.6 °F 30.01 in North 7.0 mph 13.8 mph 66 % 0.00 in
03:04 33.7 °F 23.5 °F 30.01 in NNW 7.0 mph 11.5 mph 66 % 0.00 in
03:10 33.6 °F 23.4 °F 30.02 in North 3.8 mph 13.8 mph 66 % 0.00 in
03:15 33.6 °F 23.8 °F 30.02 in North 6.1 mph 9.0 mph 67 % 0.00 in
03:20 33.5 °F 23.7 °F 30.03 in North 4.2 mph 10.4 mph 67 % 0.00 in
03:25 33.4 °F 24.0 °F 30.03 in NNE 5.0 mph 10.4 mph 68 % 0.00 in
03:30 33.3 °F 23.9 °F 30.03 in NNW 3.2 mph 5.0 mph 68 % 0.00 in
03:35 33.2 °F 23.8 °F 30.04 in NNW 6.7 mph 9.2 mph 68 % 0.00 in
03:40 33.0 °F 23.9 °F 30.04 in North 6.1 mph 8.1 mph 69 % 0.00 in
03:45 32.9 °F 22.8 °F 30.04 in North 7.9 mph 11.5 mph 66 % 0.00 in
03:50 32.8 °F 23.0 °F 30.05 in NNE 5.7 mph 10.4 mph 67 % 0.00 in
03:55 32.7 °F 23.3 °F 30.04 in NNE 7.9 mph 11.5 mph 68 % 0.00 in
04:00 32.6 °F 22.8 °F 30.05 in North 6.0 mph 9.2 mph 67 % 0.00 in
04:05 32.5 °F 22.8 °F 30.05 in NE 5.2 mph 11.5 mph 67 % 0.00 in
04:10 32.4 °F 22.7 °F 30.06 in NNE 8.1 mph 9.2 mph 67 % 0.00 in
04:16 32.3 °F 22.2 °F 30.06 in NNE 7.0 mph 14.0 mph 66 % 0.00 in
04:21 32.2 °F 22.1 °F 30.06 in NNE 6.0 mph 12.0 mph 66 % 0.00 in
04:26 32.1 °F 22.0 °F 30.06 in North 6.6 mph 11.5 mph 66 % 0.00 in
04:31 32.0 °F 22.3 °F 30.07 in NNE 8.2 mph 9.2 mph 67 % 0.00 in
04:36 32.0 °F 22.3 °F 30.08 in NNE 4.6 mph 11.5 mph 67 % 0.00 in
04:41 31.9 °F 22.5 °F 30.08 in NNE 4.2 mph 8.1 mph 68 % 0.00 in
04:46 31.8 °F 21.7 °F 30.08 in North 7.6 mph 11.5 mph 66 % 0.00 in
04:51 31.8 °F 22.1 °F 30.08 in North 5.1 mph 8.1 mph 67 % 0.00 in
04:56 31.7 °F 22.0 °F 30.09 in NNE 5.4 mph 9.2 mph 67 % 0.00 in
05:01 31.7 °F 22.0 °F 30.09 in NNE 7.9 mph 11.5 mph 67 % 0.00 in
05:06 31.6 °F 22.2 °F 30.09 in NNE 4.9 mph 10.0 mph 68 % 0.00 in
05:11 31.5 °F 22.1 °F 30.09 in NNE 7.4 mph 9.2 mph 68 % 0.00 in
05:16 31.5 °F 22.1 °F 30.09 in North 7.0 mph 10.0 mph 68 % 0.00 in
05:21 31.4 °F 22.1 °F 30.09 in North 4.6 mph 7.0 mph 68 % 0.00 in
05:26 31.4 °F 22.4 °F 30.09 in North 7.0 mph 11.5 mph 69 % 0.00 in
05:31 31.3 °F 22.0 °F 30.10 in NNE 4.4 mph 9.2 mph 68 % 0.00 in
05:36 31.3 °F 22.3 °F 30.10 in North 5.2 mph 9.2 mph 69 % 0.00 in
05:41 31.2 °F 22.2 °F 30.10 in NNE 5.6 mph 9.2 mph 69 % 0.00 in
05:46 31.1 °F 22.1 °F 30.11 in NNE 5.0 mph 9.2 mph 69 % 0.00 in
05:51 31.1 °F 22.1 °F 30.11 in NNE 5.1 mph 8.1 mph 69 % 0.00 in
05:57 31.0 °F 22.4 °F 30.12 in NNE 5.6 mph 9.2 mph 70 % 0.00 in
06:02 31.0 °F 22.4 °F 30.12 in North 4.8 mph 8.1 mph 70 % 0.00 in
06:07 30.9 °F 21.9 °F 30.12 in NNE 4.8 mph 5.0 mph 69 % 0.00 in
06:12 30.8 °F 21.8 °F 30.12 in NE 6.3 mph 10.4 mph 69 % 0.00 in
06:17 30.8 °F 21.8 °F 30.13 in NNE 3.5 mph 5.8 mph 69 % 0.00 in
06:22 30.7 °F 21.7 °F 30.14 in NNE 5.2 mph 7.0 mph 69 % 0.00 in
06:27 30.7 °F 21.7 °F 30.14 in North 4.4 mph 6.9 mph 69 % 0.00 in
06:32 30.6 °F 21.3 °F 30.15 in NNE 4.9 mph 6.9 mph 68 % 0.00 in
06:37 30.6 °F 21.6 °F 30.14 in NE 4.5 mph 8.1 mph 69 % 0.00 in
06:42 30.5 °F 21.5 °F 30.15 in NNW 4.7 mph 5.8 mph 69 % 0.00 in
06:47 30.5 °F 21.2 °F 30.15 in North 2.8 mph 5.8 mph 68 % 0.00 in
06:52 30.5 °F 21.2 °F 30.15 in NNE 4.0 mph 6.9 mph 68 % 0.00 in
06:57 30.5 °F 21.5 °F 30.14 in NNE 4.0 mph 5.8 mph 69 % 0.00 in
07:02 30.6 °F 22.0 °F 30.14 in NNE 5.3 mph 8.1 mph 70 % 0.00 in
07:07 30.7 °F 21.7 °F 30.14 in NNE 5.9 mph 11.5 mph 69 % 0.00 in
07:12 30.8 °F 21.8 °F 30.14 in North 4.5 mph 8.1 mph 69 % 0.00 in
07:17 30.9 °F 22.3 °F 30.14 in NE 4.0 mph 5.8 mph 70 % 0.00 in
07:22 31.0 °F 22.0 °F 30.15 in NNE 2.5 mph 4.6 mph 69 % 0.00 in
07:27 31.1 °F 22.5 °F 30.15 in NNE 5.1 mph 8.1 mph 70 % 0.00 in
07:32 31.2 °F 22.5 °F 30.16 in NNE 1.5 mph 3.5 mph 70 % 0.00 in
07:38 31.3 °F 22.3 °F 30.16 in NNE 3.4 mph 8.1 mph 69 % 0.00 in
07:43 31.4 °F 22.7 °F 30.17 in NNE 2.8 mph 3.0 mph 70 % 0.00 in
07:48 31.5 °F 22.8 °F 30.17 in NNE 3.9 mph 6.0 mph 70 % 0.00 in
07:53 31.7 °F 23.0 °F 30.17 in ENE 1.9 mph 4.0 mph 70 % 0.00 in
07:58 31.9 °F 22.9 °F 30.17 in NNE 2.9 mph 5.8 mph 69 % 0.00 in
08:03 32.0 °F 22.6 °F 30.18 in NE 2.0 mph 6.9 mph 68 % 0.00 in
08:08 32.2 °F 22.8 °F 30.17 in NNE 4.0 mph 8.1 mph 68 % 0.00 in
08:13 32.3 °F 22.9 °F 30.18 in NNE 1.7 mph 3.5 mph 68 % 0.00 in
08:18 32.5 °F 23.1 °F 30.18 in NNE 3.0 mph 4.0 mph 68 % 0.00 in
08:23 32.7 °F 22.9 °F 30.18 in NNE 3.2 mph 6.9 mph 67 % 0.00 in
08:28 32.8 °F 23.0 °F 30.18 in ENE 2.2 mph 3.5 mph 67 % 0.00 in
08:33 33.1 °F 23.7 °F 30.18 in NNE 2.6 mph 3.5 mph 68 % 0.00 in
08:35 33.2 °F 23.8 °F 30.17 in NNE 2.2 mph 3.5 mph 68 % 0.00 in
08:40 33.6 °F 23.8 °F 30.18 in ENE 3.3 mph 5.8 mph 67 % 0.00 in
08:45 33.8 °F 24.0 °F 30.17 in East 2.5 mph 5.0 mph 67 % 0.00 in
08:50 34.2 °F 24.7 °F 30.17 in NE 3.7 mph 4.0 mph 68 % 0.00 in
08:55 34.4 °F 24.2 °F 30.17 in ENE 4.6 mph 6.9 mph 66 % 0.00 in
09:00 34.5 °F 23.6 °F 30.17 in NNE 5.2 mph 8.1 mph 64 % 0.00 in
09:06 34.6 °F 23.7 °F 30.17 in NE 3.7 mph 9.2 mph 64 % 0.00 in
09:11 34.4 °F 23.5 °F 30.17 in ENE 6.0 mph 9.0 mph 64 % 0.00 in
09:16 34.6 °F 24.4 °F 30.17 in NE 2.0 mph 7.0 mph 66 % 0.00 in
09:21 34.8 °F 23.9 °F 30.17 in ENE 3.0 mph 9.0 mph 64 % 0.00 in
09:26 35.0 °F 24.4 °F 30.16 in ENE 6.0 mph 9.0 mph 65 % 0.00 in
09:31 34.9 °F 24.3 °F 30.16 in ENE 3.0 mph 8.0 mph 65 % 0.00 in
09:36 34.7 °F 23.8 °F 30.16 in ENE 3.0 mph 9.0 mph 64 % 0.00 in
09:41 34.8 °F 24.6 °F 30.16 in ENE 5.0 mph 8.0 mph 66 % 0.00 in
09:46 34.8 °F 24.2 °F 30.16 in ENE 5.0 mph 8.0 mph 65 % 0.00 in
09:51 34.7 °F 24.5 °F 30.16 in ENE 3.0 mph 7.0 mph 66 % 0.00 in
09:56 34.8 °F 24.2 °F 30.17 in ENE 6.4 mph 8.1 mph 65 % 0.00 in
10:01 34.8 °F 24.6 °F 30.16 in NNE 2.3 mph 8.1 mph 66 % 0.00 in
10:06 35.0 °F 24.4 °F 30.16 in ENE 2.7 mph 8.1 mph 65 % 0.00 in
10:11 35.3 °F 24.7 °F 30.16 in ENE 3.3 mph 8.1 mph 65 % 0.00 in
10:16 35.2 °F 24.6 °F 30.15 in NE 5.2 mph 8.1 mph 65 % 0.00 in
10:21 35.2 °F 25.0 °F 30.15 in ENE 4.5 mph 5.8 mph 66 % 0.00 in
10:26 35.3 °F 25.1 °F 30.15 in ENE 5.8 mph 10.0 mph 66 % 0.00 in
10:31 35.3 °F 25.1 °F 30.15 in ENE 4.3 mph 6.9 mph 66 % 0.00 in
10:36 35.3 °F 25.1 °F 30.14 in ENE 5.9 mph 8.0 mph 66 % 0.00 in
10:41 35.1 °F 24.5 °F 30.15 in East 7.3 mph 10.4 mph 65 % 0.00 in
10:46 35.0 °F 24.8 °F 30.14 in East 4.4 mph 10.4 mph 66 % 0.00 in
10:51 35.2 °F 25.7 °F 30.14 in ENE 6.0 mph 8.1 mph 68 % 0.00 in
10:56 35.4 °F 25.5 °F 30.15 in ENE 6.1 mph 10.4 mph 67 % 0.00 in
11:01 35.6 °F 25.0 °F 30.14 in ENE 6.8 mph 9.2 mph 65 % 0.00 in
11:06 35.6 °F 25.0 °F 30.14 in ENE 5.9 mph 8.1 mph 65 % 0.00 in
11:12 35.7 °F 25.8 °F 30.14 in ENE 5.7 mph 6.9 mph 67 % 0.00 in
11:17 35.9 °F 24.9 °F 30.14 in NE 4.8 mph 8.1 mph 64 % 0.00 in
11:22 36.1 °F 23.9 °F 30.14 in East 4.9 mph 9.2 mph 61 % 0.00 in
11:27 36.3 °F 24.5 °F 30.14 in East 6.0 mph 8.1 mph 62 % 0.00 in
11:32 36.5 °F 24.7 °F 30.13 in East 6.5 mph 9.2 mph 62 % 0.00 in
11:37 36.7 °F 24.5 °F 30.13 in ENE 8.6 mph 11.5 mph 61 % 0.00 in
11:42 36.6 °F 24.0 °F 30.13 in East 6.1 mph 9.2 mph 60 % 0.00 in
11:47 36.2 °F 23.2 °F 30.13 in ENE 6.9 mph 9.2 mph 59 % 0.00 in
11:52 36.2 °F 24.0 °F 30.13 in East 4.2 mph 5.8 mph 61 % 0.00 in
11:57 36.0 °F 22.2 °F 30.13 in ENE 6.9 mph 9.2 mph 57 % 0.00 in
12:02 35.7 °F 21.9 °F 30.13 in ENE 6.0 mph 7.0 mph 57 % 0.00 in
12:07 35.5 °F 23.0 °F 30.12 in East 5.5 mph 10.4 mph 60 % 0.00 in
12:12 35.2 °F 22.3 °F 30.12 in ENE 6.4 mph 8.1 mph 59 % 0.00 in
12:17 35.0 °F 22.5 °F 30.11 in ENE 5.8 mph 10.4 mph 60 % 0.00 in
12:22 34.9 °F 22.4 °F 30.11 in East 5.6 mph 8.1 mph 60 % 0.00 in
12:27 35.1 °F 23.0 °F 30.10 in ENE 6.5 mph 8.1 mph 61 % 0.00 in
12:32 35.3 °F 22.8 °F 30.09 in ENE 5.6 mph 8.1 mph 60 % 0.00 in
12:37 35.6 °F 24.2 °F 30.10 in ENE 5.1 mph 8.0 mph 63 % 0.00 in
12:42 35.9 °F 23.7 °F 30.10 in ENE 5.6 mph 10.0 mph 61 % 0.00 in
12:47 35.9 °F 24.1 °F 30.11 in ENE 5.1 mph 5.8 mph 62 % 0.00 in
12:53 36.0 °F 23.4 °F 30.09 in ENE 7.2 mph 10.4 mph 60 % 0.00 in
12:58 35.9 °F 24.5 °F 30.10 in ENE 3.5 mph 5.8 mph 63 % 0.00 in
13:03 36.1 °F 23.9 °F 30.10 in ENE 4.0 mph 8.1 mph 61 % 0.00 in
13:08 36.4 °F 24.6 °F 30.10 in ENE 3.7 mph 6.9 mph 62 % 0.00 in
13:13 36.4 °F 24.2 °F 30.09 in NE 5.4 mph 8.1 mph 61 % 0.00 in
13:18 36.5 °F 24.7 °F 30.08 in ENE 7.9 mph 9.2 mph 62 % 0.00 in
13:23 36.3 °F 24.5 °F 30.07 in East 5.2 mph 9.2 mph 62 % 0.00 in
13:28 36.5 °F 25.1 °F 30.07 in ENE 5.1 mph 9.2 mph 63 % 0.00 in
13:33 36.5 °F 25.1 °F 30.06 in East 2.5 mph 6.0 mph 63 % 0.00 in
13:38 36.3 °F 25.3 °F 30.07 in ENE 7.5 mph 11.0 mph 64 % 0.00 in
13:43 36.4 °F 25.4 °F 30.08 in East 2.1 mph 4.6 mph 64 % 0.00 in
13:48 36.5 °F 25.5 °F 30.08 in ENE 5.0 mph 8.1 mph 64 % 0.00 in
13:53 36.7 °F 25.7 °F 30.08 in South 4.2 mph 5.0 mph 64 % 0.00 in
13:58 37.1 °F 25.3 °F 30.08 in SE 3.1 mph 9.2 mph 62 % 0.00 in
14:03 37.6 °F 24.6 °F 30.08 in SE 7.3 mph 11.5 mph 59 % 0.00 in
14:08 37.9 °F 25.2 °F 30.08 in SSW 2.2 mph 4.6 mph 60 % 0.00 in
14:13 38.2 °F 25.1 °F 30.09 in SSW 5.0 mph 10.4 mph 59 % 0.00 in
14:18 38.2 °F 24.7 °F 30.08 in SE 2.4 mph 6.9 mph 58 % 0.00 in
14:24 38.2 °F 25.1 °F 30.09 in South 4.1 mph 10.4 mph 59 % 0.00 in
14:29 38.2 °F 25.1 °F 30.09 in SE 3.7 mph 9.2 mph 59 % 0.00 in
14:34 38.2 °F 25.1 °F 30.10 in SSE 2.7 mph 5.8 mph 59 % 0.00 in
14:39 38.2 °F 25.1 °F 30.10 in SSE 5.0 mph 6.9 mph 59 % 0.00 in
14:44 38.1 °F 25.0 °F 30.11 in SE 5.4 mph 8.1 mph 59 % 0.00 in
14:49 38.1 °F 25.4 °F 30.10 in SSE 3.9 mph 8.0 mph 60 % 0.00 in
14:54 38.0 °F 25.3 °F 30.09 in SSE 2.3 mph 4.0 mph 60 % 0.00 in
14:59 37.9 °F 24.8 °F 30.08 in South 1.5 mph 4.0 mph 59 % 0.00 in
15:04 37.8 °F 25.5 °F 30.08 in South 4.6 mph 6.9 mph 61 % 0.00 in
15:09 37.7 °F 25.8 °F 30.08 in SSE 4.2 mph 6.0 mph 62 % 0.00 in
15:14 37.5 °F 25.7 °F 30.08 in SE 5.1 mph 6.9 mph 62 % 0.00 in
15:19 37.4 °F 25.6 °F 30.08 in SSE 1.6 mph 3.5 mph 62 % 0.00 in
15:24 37.4 °F 25.9 °F 30.07 in SSE 1.5 mph 6.9 mph 63 % 0.00 in
15:29 37.3 °F 26.2 °F 30.07 in SSE 3.0 mph 5.8 mph 64 % 0.00 in
15:34 37.2 °F 26.1 °F 30.07 in South 1.3 mph 3.5 mph 64 % 0.00 in
15:39 37.2 °F 26.1 °F 30.07 in SSE 2.2 mph 3.5 mph 64 % 0.00 in
15:44 37.1 °F 26.4 °F 30.06 in SE 3.1 mph 4.0 mph 65 % 0.00 in
15:49 37.1 °F 26.4 °F 30.06 in SSE 2.8 mph 4.6 mph 65 % 0.00 in
15:54 37.1 °F 26.8 °F 30.06 in Calm   3.5 mph 66 % 0.00 in
16:00 37.0 °F 26.7 °F 30.06 in SSE 0.3 mph 3.5 mph 66 % 0.00 in
16:05 36.9 °F 27.0 °F 30.00 in SSE 7.3 mph 10.4 mph 67 % 0.00 in
16:10 36.8 °F 26.9 °F 29.98 in SE 4.7 mph 8.1 mph 67 % 0.00 in
16:15 36.7 °F 27.1 °F 29.97 in SE 4.8 mph 9.2 mph 68 % 0.00 in
16:20 36.6 °F 27.4 °F 29.97 in ESE 6.7 mph 9.2 mph 69 % 0.00 in
16:25 36.6 °F 27.7 °F 29.97 in SE 2.6 mph 6.9 mph 70 % 0.00 in
16:30 36.6 °F 28.1 °F 29.98 in ESE 2.9 mph 5.8 mph 71 % 0.00 in
16:35 36.6 °F 28.1 °F 29.99 in East 4.6 mph 5.8 mph 71 % 0.00 in
16:40 36.6 °F 28.1 °F 30.01 in SE 1.2 mph 2.3 mph 71 % 0.00 in
16:45 36.7 °F 28.2 °F 30.01 in WSW 3.0 mph 4.0 mph 71 % 0.00 in
16:50 36.7 °F 28.5 °F 30.02 in WSW 1.0 mph 2.3 mph 72 % 0.00 in
16:55 36.7 °F 28.5 °F 30.02 in Calm     72 % 0.00 in
17:00 36.8 °F 28.6 °F 30.02 in Calm     72 % 0.00 in
17:06 36.8 °F 28.6 °F 30.02 in Calm     72 % 0.00 in
17:10 36.9 °F 29.0 °F 30.01 in Calm   2.0 mph 73 % 0.00 in
17:15 37.0 °F 29.1 °F 30.01 in SSW 0.7 mph 3.5 mph 73 % 0.00 in
17:20 37.0 °F 29.5 °F 30.01 in SSW 1.0 mph 3.0 mph 74 % 0.00 in
17:25 37.1 °F 29.9 °F 30.01 in South 1.4 mph 3.0 mph 75 % 0.00 in
17:31 37.1 °F 30.9 °F 30.01 in South 1.0 mph 6.0 mph 78 % 0.00 in
17:35 36.9 °F 31.6 °F 30.01 in SSE 3.0 mph 9.0 mph 81 % 0.00 in
17:40 36.6 °F 31.6 °F 30.01 in SSE 2.0 mph 6.0 mph 82 % 0.00 in
17:46 36.4 °F 32.0 °F 30.01 in SE 1.0 mph 5.0 mph 84 % 0.00 in
17:50 36.2 °F 31.8 °F 30.01 in Calm   2.0 mph 84 % 0.00 in
17:56 36.0 °F 31.6 °F 30.01 in Calm     84 % 0.00 in
18:01 35.7 °F 31.6 °F 30.00 in Calm     85 % 0.00 in
18:06 35.5 °F 31.7 °F 30.00 in Calm     86 % 0.00 in
18:11 35.2 °F 31.7 °F 30.00 in Calm     87 % 0.00 in
18:16 35.0 °F 31.5 °F 29.99 in Calm     87 % 0.00 in
18:21 34.8 °F 31.6 °F 29.99 in Calm     88 % 0.00 in
18:26 34.6 °F 31.7 °F 29.99 in Calm     89 % 0.00 in
18:31 34.4 °F 31.5 °F 29.99 in Calm     89 % 0.00 in
18:36 34.3 °F 31.7 °F 30.00 in Calm     90 % 0.00 in
18:41 34.2 °F 31.6 °F 29.99 in Calm     90 % 0.00 in
18:46 34.1 °F 31.5 °F 29.99 in Calm     90 % 0.00 in
18:51 34.0 °F 31.4 °F 29.98 in Calm     90 % 0.00 in
18:56 33.9 °F 31.3 °F 29.97 in Calm     90 % 0.00 in
19:01 33.8 °F 31.5 °F 29.96 in Calm     91 % 0.00 in
19:07 33.7 °F 31.4 °F 29.96 in Calm     91 % 0.01 in
19:12 33.7 °F 31.4 °F 29.95 in Calm   1.2 mph 91 % 0.01 in
19:17 33.5 °F 31.4 °F 29.95 in Calm     92 % 0.01 in
19:22 33.5 °F 31.4 °F 29.95 in Calm     92 % 0.02 in
19:27 33.4 °F 31.3 °F 29.95 in Calm     92 % 0.02 in
19:32 33.4 °F 31.6 °F 29.95 in Calm     93 % 0.02 in
19:37 33.4 °F 31.6 °F 29.95 in Calm     93 % 0.02 in
19:42 33.3 °F 31.5 °F 29.95 in Calm     93 % 0.03 in
19:47 33.3 °F 31.5 °F 29.94 in Calm     93 % 0.03 in
19:52 33.2 °F 31.4 °F 29.93 in Calm     93 % 0.04 in
19:57 33.2 °F 31.7 °F 29.93 in Calm     94 % 0.04 in
20:02 33.2 °F 31.7 °F 29.92 in Calm     94 % 0.04 in
20:07 33.2 °F 31.7 °F 29.92 in Calm     94 % 0.04 in
20:12 33.2 °F 31.7 °F 29.91 in Calm     94 % 0.05 in
20:17 33.1 °F 31.6 °F 29.91 in Calm     94 % 0.05 in
20:22 33.1 °F 31.8 °F 29.92 in Calm     95 % 0.05 in
20:28 33.1 °F 31.8 °F 29.91 in Calm     95 % 0.05 in
20:33 33.1 °F 31.8 °F 29.91 in Calm     95 % 0.06 in
20:38 33.1 °F 31.8 °F 29.90 in Calm     95 % 0.07 in
20:43 33.1 °F 31.8 °F 29.90 in Calm     95 % 0.06 in
20:48 33.0 °F 31.7 °F 29.89 in Calm     95 % 0.08 in
20:53 33.0 °F 31.7 °F 29.89 in Calm     95 % 0.08 in
20:58 33.0 °F 31.7 °F 29.88 in Calm     95 % 0.10 in
21:03 33.0 °F 31.7 °F 29.88 in Calm     95 % 0.10 in
21:08 33.1 °F 31.8 °F 29.87 in Calm     95 % 0.11 in
21:13 33.1 °F 31.8 °F 29.86 in Calm     95 % 0.11 in
21:18 33.1 °F 31.8 °F 29.86 in Calm     95 % 0.13 in
21:23 33.1 °F 32.1 °F 29.85 in Calm     96 % 0.13 in
21:28 33.1 °F 32.1 °F 29.84 in Calm     96 % 0.14 in
21:33 33.2 °F 32.2 °F 29.84 in SE 1.4 mph 3.5 mph 96 % 0.14 in
21:38 33.2 °F 32.2 °F 29.83 in SE 0.8 mph 2.0 mph 96 % 0.13 in
21:43 33.2 °F 32.2 °F 29.83 in SE 0.3 mph 1.2 mph 96 % 0.14 in
21:48 33.2 °F 32.2 °F 29.83 in SE 0.8 mph 3.0 mph 96 % 0.13 in
21:53 33.2 °F 32.2 °F 29.82 in SE 1.4 mph 2.3 mph 96 % 0.13 in
21:59 33.2 °F 32.2 °F 29.82 in SE 0.6 mph 2.3 mph 96 % 0.11 in
22:04 33.2 °F 32.2 °F 29.81 in SE 0.6 mph 2.3 mph 96 % 0.11 in
22:09 33.2 °F 32.2 °F 29.81 in Calm   2.3 mph 96 % 0.10 in
22:14 33.1 °F 32.1 °F 29.81 in Calm     96 % 0.09 in
22:19 33.1 °F 32.1 °F 29.80 in Calm     96 % 0.08 in
22:24 33.1 °F 32.1 °F 29.80 in Calm     96 % 0.08 in
22:29 33.1 °F 32.1 °F 29.80 in Calm     96 % 0.07 in
22:34 33.1 °F 32.1 °F 29.80 in Calm     96 % 0.06 in
22:39 33.0 °F 32.0 °F 29.80 in Calm     96 % 0.06 in
22:44 33.0 °F 32.0 °F 29.80 in Calm     96 % 0.06 in
22:49 33.1 °F 32.1 °F 29.80 in Calm     96 % 0.06 in
22:54 33.0 °F 32.0 °F 29.79 in Calm     96 % 0.05 in
22:59 33.0 °F 32.0 °F 29.79 in Calm     96 % 0.06 in
23:04 33.0 °F 32.0 °F 29.78 in Calm     96 % 0.06 in
23:09 33.0 °F 32.0 °F 29.78 in Calm     96 % 0.06 in
23:14 33.0 °F 32.0 °F 29.78 in Calm     96 % 0.06 in
23:19 33.0 °F 32.0 °F 29.77 in Calm     96 % 0.07 in
23:24 33.0 °F 32.0 °F 29.78 in Calm     96 % 0.06 in
23:29 33.0 °F 32.0 °F 29.77 in Calm     96 % 0.07 in
23:34 33.0 °F 32.0 °F 29.77 in Calm     96 % 0.07 in
23:40 33.0 °F 32.0 °F 29.76 in Calm     96 % 0.07 in
23:45 33.0 °F 32.0 °F 29.76 in Calm     96 % 0.07 in
23:50 33.0 °F 32.0 °F 29.76 in Calm     96 % 0.06 in
23:55 33.0 °F 32.2 °F 29.76 in Calm     97 % 0.06 in
Crab Meadow Weather
Compliments of Weather Underground - 3 mb

Script developed by  Jim McMurry - jmcmurry@mwt.net Adapted for the template by  Wim van der Kuil - Leuven-Template.eu

Astronomy: It takes 16 million horsepower to break loose from the Earth's gravitational pull.